Time;durP1;ratioP1;P1;durP2;ratioP2;P2;SDS_P1;SDS_P2;PMS_P1;PMS_P2;Temp;Humidity;BMP_temperature;BMP_pressure;BME280_temperature;BME280_humidity;BME280_pressure;Samples;Min_cycle;Max_cycle;Signal;HPM_P1;HPM_P2
2023/06/11 00:00:28;;;;;;;14.13;9.70;;;17.50;92.70;;;;;;5984340;24;20504;-64
2023/06/11 00:02:56;;;;;;;11.40;8.40;;;17.90;89.50;;;;;;5983740;24;20419;-64
2023/06/11 00:05:27;;;;;;;13.40;9.67;;;18.20;84.40;;;;;;5983779;24;20444;-64
2023/06/11 00:07:55;;;;;;;12.23;9.03;;;18.50;80.90;;;;;;5983786;24;20430;-64
2023/06/11 00:10:24;;;;;;;12.43;8.70;;;18.70;77.00;;;;;;5983771;24;20532;-64
2023/06/11 00:12:51;;;;;;;10.53;7.70;;;18.90;75.40;;;;;;5983445;24;20462;-64
2023/06/11 00:15:18;;;;;;;11.50;7.63;;;18.90;73.40;;;;;;5983731;24;20455;-64
2023/06/11 00:17:45;;;;;;;13.77;8.80;;;19.00;72.40;;;;;;5984354;24;20419;-64
2023/06/11 00:20:14;;;;;;;12.00;9.23;;;19.10;71.20;;;;;;5983944;24;20419;-64
2023/06/11 00:22:42;;;;;;;11.93;8.67;;;19.00;71.00;;;;;;5983559;24;20447;-64
2023/06/11 00:25:11;;;;;;;11.07;8.13;;;19.00;71.40;;;;;;5983446;24;20475;-64
2023/06/11 00:27:39;;;;;;;10.73;9.17;;;18.90;72.50;;;;;;5983488;24;20502;-64
2023/06/11 00:30:07;;;;;;;10.90;8.63;;;18.90;72.90;;;;;;5983507;24;20420;-64
2023/06/11 00:32:35;;;;;;;13.50;9.10;;;18.70;74.20;;;;;;5983258;24;20503;-64
2023/06/11 00:35:06;;;;;;;11.73;8.33;;;18.70;75.40;;;;;;5983772;24;20415;-64
2023/06/11 00:37:34;;;;;;;12.50;10.37;;;18.50;76.80;;;;;;5983558;24;20404;-64
2023/06/11 00:40:01;;;;;;;12.80;9.90;;;18.30;84.50;;;;;;5984008;24;20506;-64
2023/06/11 00:42:28;;;;;;;11.77;9.80;;;18.10;85.10;;;;;;5983306;24;20530;-64
2023/06/11 00:44:56;;;;;;;15.30;9.73;;;17.90;88.90;;;;;;5983352;24;20444;-64
2023/06/11 00:47:23;;;;;;;11.73;9.43;;;17.70;90.40;;;;;;5983451;24;20480;-64
2023/06/11 00:49:51;;;;;;;12.67;10.13;;;17.60;91.50;;;;;;5983752;24;20488;-64
2023/06/11 00:52:19;;;;;;;13.10;10.50;;;17.40;91.00;;;;;;5983787;24;20796;-64
2023/06/11 00:54:46;;;;;;;15.10;10.33;;;17.30;94.00;;;;;;5983442;24;20415;-64
2023/06/11 00:57:14;;;;;;;11.00;9.57;;;17.10;95.50;;;;;;5983426;24;20503;-64
2023/06/11 00:59:42;;;;;;;16.43;11.10;;;17.10;96.10;;;;;;5983560;24;20442;-64
2023/06/11 01:02:18;;;;;;;12.17;10.57;;;17.00;97.20;;;;;;5983846;24;20415;-64
2023/06/11 01:04:46;;;;;;;15.83;12.20;;;16.90;98.40;;;;;;5982995;24;20826;-64
2023/06/11 01:07:16;;;;;;;13.73;10.97;;;16.80;99.30;;;;;;5983282;24;20757;-64
2023/06/11 01:09:43;;;;;;;13.47;11.00;;;16.80;99.60;;;;;;5983749;24;20406;-64
2023/06/11 01:12:12;;;;;;;17.10;11.67;;;16.80;99.90;;;;;;5983534;24;20415;-64
2023/06/11 01:14:42;;;;;;;12.73;10.27;;;16.70;99.90;;;;;;5982319;24;20953;-64
2023/06/11 01:17:17;;;;;;;18.80;12.50;;;16.70;99.90;;;;;;5983524;24;20448;-64
2023/06/11 01:20:12;;;;;;;14.27;11.60;;;16.60;99.90;;;;;;5983511;24;20422;-64
2023/06/11 01:23:17;;;;;;;13.20;11.37;;;16.50;99.90;;;;;;5979940;24;20759;-64
2023/06/11 01:25:54;;;;;;;13.53;12.13;;;16.40;99.90;;;;;;5940630;24;20999;-64
2023/06/11 01:28:27;;;;;;;17.57;15.30;;;16.30;99.90;;;;;;5983338;24;20466;-64
2023/06/11 01:30:57;;;;;;;18.57;16.87;;;16.20;99.90;;;;;;5983539;24;20487;-64
2023/06/11 01:33:26;;;;;;;18.77;16.97;;;16.20;99.90;;;;;;5982943;24;20456;-64
2023/06/11 01:35:57;;;;;;;20.63;18.27;;;16.10;99.90;;;;;;5983387;24;20472;-64
2023/06/11 01:38:25;;;;;;;24.33;22.10;;;16.00;99.90;;;;;;5983302;24;20707;-64
2023/06/11 01:40:57;;;;;;;25.17;23.13;;;16.00;99.90;;;;;;5983047;23;20424;-64
2023/06/11 01:43:25;;;;;;;26.67;24.40;;;15.90;99.90;;;;;;5982762;24;20404;-64
2023/06/11 01:45:52;;;;;;;26.03;24.10;;;15.90;99.90;;;;;;5983321;24;20924;-64
2023/06/11 01:48:20;;;;;;;28.97;26.90;;;15.90;99.90;;;;;;5981835;24;20475;-64
2023/06/11 01:50:47;;;;;;;31.77;29.57;;;15.90;99.90;;;;;;5983276;24;20539;-64
2023/06/11 01:53:16;;;;;;;32.57;30.27;;;15.90;99.90;;;;;;5982418;24;20455;-64
2023/06/11 01:55:43;;;;;;;37.30;34.93;;;15.80;99.90;;;;;;5982973;24;20415;-64
2023/06/11 01:58:11;;;;;;;39.73;37.47;;;15.80;99.90;;;;;;5982788;24;20423;-64
2023/06/11 02:00:39;;;;;;;42.10;39.07;;;15.80;99.90;;;;;;5982940;24;20481;-64
2023/06/11 02:03:06;;;;;;;42.77;40.07;;;15.70;99.90;;;;;;5982290;24;20935;-64
2023/06/11 02:05:33;;;;;;;50.87;47.53;;;15.70;99.90;;;;;;5982972;24;20444;-64
2023/06/11 02:08:00;;;;;;;41.57;39.00;;;15.70;99.90;;;;;;5982750;24;20510;-64
2023/06/11 02:10:27;;;;;;;23.40;21.60;;;15.90;99.90;;;;;;5982866;24;20419;-64
2023/06/11 02:12:54;;;;;;;14.87;13.47;;;16.10;99.90;;;;;;5982370;24;20506;-64
2023/06/11 02:15:21;;;;;;;15.20;13.03;;;16.30;99.90;;;;;;5983145;24;20426;-64
2023/06/11 02:17:49;;;;;;;13.87;12.20;;;16.40;99.90;;;;;;5983079;24;20458;-64
2023/06/11 02:20:16;;;;;;;14.47;11.37;;;16.60;99.90;;;;;;5982836;24;20958;-64
2023/06/11 02:22:43;;;;;;;13.57;10.07;;;16.70;99.90;;;;;;5982504;24;20787;-64
2023/06/11 02:25:10;;;;;;;13.30;10.73;;;16.80;99.90;;;;;;5982944;24;20478;-64
2023/06/11 02:27:37;;;;;;;12.10;10.70;;;16.80;99.90;;;;;;5991839;24;20444;-64
2023/06/11 02:30:06;;;;;;;17.00;11.43;;;16.90;99.90;;;;;;5982982;24;20419;-64
2023/06/11 02:32:33;;;;;;;11.20;9.83;;;16.90;99.90;;;;;;5982502;24;20419;-64
2023/06/11 02:35:01;;;;;;;11.67;10.47;;;16.90;99.90;;;;;;5983050;24;20419;-64
2023/06/11 02:37:28;;;;;;;14.63;11.13;;;17.00;99.90;;;;;;5982610;24;20518;-64
2023/06/11 02:39:55;;;;;;;12.47;10.10;;;17.00;99.90;;;;;;5982856;24;20502;-64
2023/06/11 02:42:22;;;;;;;14.07;11.03;;;16.90;99.90;;;;;;5982890;24;20454;-64
2023/06/11 02:44:48;;;;;;;13.57;10.97;;;16.90;99.90;;;;;;5982438;24;20420;-64
2023/06/11 02:47:15;;;;;;;23.60;12.53;;;16.70;99.90;;;;;;5982880;24;20423;-64
2023/06/11 02:49:42;;;;;;;17.70;12.50;;;16.70;99.90;;;;;;5982855;24;20526;-64
2023/06/11 02:52:10;;;;;;;14.07;12.50;;;16.60;99.90;;;;;;5983436;24;20419;-64
2023/06/11 02:54:37;;;;;;;13.73;12.10;;;16.50;99.90;;;;;;5984242;24;20419;-64
2023/06/11 02:57:05;;;;;;;16.43;13.57;;;16.30;99.90;;;;;;5984698;24;20780;-64
2023/06/11 02:59:32;;;;;;;17.43;14.93;;;16.20;99.90;;;;;;5984384;24;20426;-64
2023/06/11 03:01:59;;;;;;;18.40;15.70;;;16.10;99.90;;;;;;5984740;24;20424;-64
2023/06/11 03:04:26;;;;;;;19.27;17.50;;;16.10;99.90;;;;;;5983523;24;20908;-64
2023/06/11 03:06:53;;;;;;;19.37;17.47;;;16.00;99.90;;;;;;5984291;24;20443;-64
2023/06/11 03:09:23;;;;;;;20.23;15.07;;;16.00;99.90;;;;;;5984388;24;20510;-64
2023/06/11 03:11:50;;;;;;;15.37;13.80;;;16.10;99.90;;;;;;5984775;24;20403;-63
2023/06/11 03:14:20;;;;;;;14.67;13.23;;;16.20;99.90;;;;;;5984055;24;20498;-63
2023/06/11 03:16:46;;;;;;;17.53;15.20;;;16.20;99.90;;;;;;5984725;24;20447;-64
2023/06/11 03:19:13;;;;;;;22.10;16.17;;;16.40;99.90;;;;;;5984014;24;20494;-63
2023/06/11 03:21:40;;;;;;;15.60;14.00;;;16.50;99.90;;;;;;5981617;24;20426;-64
2023/06/11 03:24:07;;;;;;;14.50;13.10;;;16.40;99.90;;;;;;5981063;24;20419;-64
2023/06/11 03:26:35;;;;;;;16.27;14.70;;;16.50;99.90;;;;;;5983999;24;20445;-64
2023/06/11 03:29:03;;;;;;;15.10;13.43;;;16.50;99.90;;;;;;5984285;24;20419;-64
2023/06/11 03:31:30;;;;;;;15.20;13.73;;;16.60;99.90;;;;;;5984352;24;20427;-64
2023/06/11 03:33:57;;;;;;;16.47;14.33;;;16.60;99.90;;;;;;5983785;24;20506;-64
2023/06/11 03:36:23;;;;;;;18.93;14.60;;;16.50;99.90;;;;;;5984090;24;20415;-63
2023/06/11 03:38:50;;;;;;;15.10;13.50;;;16.40;99.90;;;;;;5984454;24;20425;-64
2023/06/11 03:41:17;;;;;;;16.23;14.57;;;16.40;99.90;;;;;;5983993;24;20428;-63
2023/06/11 03:43:46;;;;;;;18.57;16.50;;;16.40;99.90;;;;;;5983444;24;20934;-64
2023/06/11 03:46:12;;;;;;;22.77;20.50;;;16.30;99.90;;;;;;5984552;24;20523;-64
2023/06/11 03:48:39;;;;;;;22.27;20.37;;;16.30;99.90;;;;;;5984313;24;20494;-63
2023/06/11 03:51:06;;;;;;;22.33;20.03;;;16.40;99.90;;;;;;5983810;24;20419;-64
2023/06/11 03:53:33;;;;;;;22.70;21.00;;;16.40;99.90;;;;;;5983861;24;20506;-63
2023/06/11 03:56:00;;;;;;;26.77;24.13;;;16.40;99.90;;;;;;5984252;24;20422;-64
2023/06/11 03:58:27;;;;;;;21.97;20.17;;;16.40;99.90;;;;;;5983788;24;20510;-64
2023/06/11 04:00:55;;;;;;;23.50;21.60;;;16.50;99.90;;;;;;5984440;24;20426;-64
2023/06/11 04:03:22;;;;;;;26.60;24.70;;;16.50;99.90;;;;;;5983342;24;20458;-64
2023/06/11 04:05:49;;;;;;;25.87;23.53;;;16.50;99.90;;;;;;5984129;24;20784;-64
2023/06/11 04:08:16;;;;;;;22.40;20.80;;;16.60;99.90;;;;;;5983540;24;20896;-64
2023/06/11 04:10:44;;;;;;;24.93;22.83;;;16.60;99.90;;;;;;5984154;24;20507;-64
2023/06/11 04:13:11;;;;;;;26.57;24.47;;;16.60;99.90;;;;;;5983578;24;20420;-65
2023/06/11 04:15:38;;;;;;;23.03;21.03;;;16.70;99.90;;;;;;5984297;24;20734;-64
2023/06/11 04:18:06;;;;;;;20.97;18.83;;;16.70;99.90;;;;;;5983407;24;20419;-64
2023/06/11 04:20:33;;;;;;;20.63;18.97;;;16.80;99.90;;;;;;5982743;24;20419;-64
2023/06/11 04:23:00;;;;;;;21.30;19.30;;;16.80;99.90;;;;;;5982779;24;20420;-64
2023/06/11 04:25:27;;;;;;;24.10;22.00;;;16.90;99.90;;;;;;5983255;24;20439;-64
2023/06/11 04:27:53;;;;;;;19.90;18.10;;;17.00;99.90;;;;;;5983346;24;20522;-64
2023/06/11 04:30:21;;;;;;;16.73;14.93;;;17.10;99.90;;;;;;5983442;24;20498;-64
2023/06/11 04:32:54;;;;;;;19.37;14.57;;;17.20;99.90;;;;;;5981821;24;20419;-64
2023/06/11 04:35:23;;;;;;;14.43;12.90;;;17.30;99.90;;;;;;5983822;24;20404;-63
2023/06/11 04:37:50;;;;;;;12.60;10.03;;;17.40;99.90;;;;;;5983666;24;20723;-64
2023/06/11 04:40:20;;;;;;;14.37;11.70;;;17.60;99.90;;;;;;5984119;24;20426;-64
2023/06/11 04:42:47;;;;;;;13.00;10.23;;;17.80;99.90;;;;;;5983398;24;20442;-64
2023/06/11 04:45:18;;;;;;;12.90;10.27;;;17.90;99.90;;;;;;5983896;24;20419;-64
2023/06/11 04:47:45;;;;;;;14.73;10.63;;;18.00;99.90;;;;;;5983758;24;20405;-64
2023/06/11 04:50:20;;;;;;;12.70;10.50;;;18.20;99.90;;;;;;5983392;24;20893;-64
2023/06/11 04:52:51;;;;;;;11.90;9.60;;;18.30;99.90;;;;;;5983162;24;20431;-64
2023/06/11 04:55:19;;;;;;;12.80;10.10;;;18.40;99.90;;;;;;5984253;24;20404;-64
2023/06/11 04:57:46;;;;;;;17.93;9.60;;;18.40;99.90;;;;;;5983702;24;20419;-64
2023/06/11 05:00:14;;;;;;;14.77;9.97;;;18.60;99.90;;;;;;5983751;24;20888;-64
2023/06/11 05:02:43;;;;;;;12.73;10.90;;;18.70;99.90;;;;;;5982672;24;20916;-64
2023/06/11 05:05:10;;;;;;;11.97;9.67;;;18.80;99.90;;;;;;5983258;24;20901;-64
2023/06/11 05:07:37;;;;;;;16.50;9.10;;;18.90;99.90;;;;;;5982747;24;20962;-64
2023/06/11 05:10:07;;;;;;;13.90;9.73;;;19.00;98.40;;;;;;5983597;24;20404;-64
2023/06/11 05:12:33;;;;;;;13.80;9.57;;;19.10;98.30;;;;;;5982772;24;20419;-64
2023/06/11 05:15:00;;;;;;;16.93;10.80;;;19.20;98.20;;;;;;5982712;24;20420;-64
2023/06/11 05:17:27;;;;;;;12.73;8.17;;;19.40;97.60;;;;;;5983329;24;20499;-64
2023/06/11 05:19:54;;;;;;;10.50;8.60;;;19.80;95.70;;;;;;5983626;24;20730;-64
2023/06/11 05:22:21;;;;;;;11.50;8.40;;;20.20;94.60;;;;;;5981304;24;20428;-64
2023/06/11 05:24:48;;;;;;;10.97;9.00;;;20.70;92.00;;;;;;5981089;24;20996;-64
2023/06/11 05:27:16;;;;;;;11.53;8.70;;;21.20;90.80;;;;;;5983055;24;20454;-64
2023/06/11 05:29:43;;;;;;;11.20;8.10;;;21.70;87.60;;;;;;5982967;24;20423;-64
2023/06/11 05:32:10;;;;;;;9.07;7.63;;;22.10;83.40;;;;;;5981680;24;20423;-64
2023/06/11 05:34:39;;;;;;;9.77;7.60;;;22.50;80.40;;;;;;5982716;24;20507;-64
2023/06/11 05:37:06;;;;;;;9.30;7.70;;;22.80;76.70;;;;;;5983264;24;20721;-64
2023/06/11 05:39:33;;;;;;;11.17;7.33;;;23.10;72.90;;;;;;5982486;24;20426;-64
2023/06/11 05:42:00;;;;;;;10.70;7.57;;;23.60;70.10;;;;;;5982710;24;20419;-64
2023/06/11 05:44:28;;;;;;;10.53;8.33;;;23.90;66.90;;;;;;5982275;24;20419;-64
2023/06/11 05:46:55;;;;;;;11.27;7.80;;;24.00;64.30;;;;;;5982731;24;20758;-64
2023/06/11 05:49:22;;;;;;;10.07;8.20;;;24.20;61.50;;;;;;5982418;24;20502;-64
2023/06/11 05:51:49;;;;;;;10.43;8.00;;;24.20;60.10;;;;;;5982439;24;20426;-64
2023/06/11 05:54:15;;;;;;;9.73;7.47;;;24.40;57.30;;;;;;5980574;24;20428;-64
2023/06/11 05:56:42;;;;;;;9.73;7.33;;;24.50;57.50;;;;;;5982402;24;20416;-64
2023/06/11 05:59:09;;;;;;;10.23;7.27;;;24.60;56.30;;;;;;5980820;24;20956;-64
2023/06/11 06:01:37;;;;;;;11.10;7.53;;;24.90;57.80;;;;;;5982538;24;20419;-64
2023/06/11 06:04:04;;;;;;;9.70;6.80;;;25.10;54.90;;;;;;5981512;24;20426;-64
2023/06/11 06:06:32;;;;;;;9.23;7.17;;;24.90;52.50;;;;;;5982748;24;20830;-64
2023/06/11 06:08:59;;;;;;;9.90;6.70;;;25.20;52.10;;;;;;5980553;24;20474;-63
2023/06/11 06:11:26;;;;;;;10.87;7.80;;;25.10;49.10;;;;;;5982044;24;20432;-64
2023/06/11 06:13:53;;;;;;;12.77;7.43;;;25.30;49.50;;;;;;5981430;24;20424;-64
2023/06/11 06:16:20;;;;;;;9.30;6.30;;;25.40;49.30;;;;;;5981848;24;20421;-64
2023/06/11 06:18:48;;;;;;;11.87;7.83;;;25.50;49.40;;;;;;5982130;24;20426;-64
2023/06/11 06:21:15;;;;;;;10.13;7.00;;;25.70;47.30;;;;;;5982232;24;20409;-64
2023/06/11 06:23:42;;;;;;;10.33;7.20;;;25.80;45.70;;;;;;5981722;24;20394;-64
2023/06/11 06:26:09;;;;;;;9.20;6.83;;;26.00;45.90;;;;;;5982133;24;20474;-64
2023/06/11 06:28:36;;;;;;;10.80;7.10;;;26.10;44.60;;;;;;5981974;24;20511;-64
2023/06/11 06:31:07;;;;;;;8.47;6.30;;;26.20;40.80;;;;;;5982637;24;20510;-64
2023/06/11 06:33:37;;;;;;;9.60;7.53;;;26.30;40.90;;;;;;5981312;24;20880;-64
2023/06/11 06:36:06;;;;;;;12.33;7.03;;;26.30;40.90;;;;;;5982496;24;20422;-64
2023/06/11 06:38:35;;;;;;;9.43;7.37;;;26.40;41.00;;;;;;5982282;24;20424;-64
2023/06/11 06:41:02;;;;;;;9.37;6.43;;;26.60;41.10;;;;;;5982575;24;20463;-64
2023/06/11 06:43:29;;;;;;;9.27;6.70;;;26.50;37.10;;;;;;5982088;24;20452;-64
2023/06/11 06:45:55;;;;;;;10.53;7.03;;;26.60;38.90;;;;;;5982660;24;20737;-64
2023/06/11 06:48:23;;;;;;;8.80;6.57;;;26.80;38.00;;;;;;5981946;24;20932;-64
2023/06/11 06:50:51;;;;;;;8.80;6.77;;;27.00;36.70;;;;;;5982818;24;20401;-64
2023/06/11 06:53:19;;;;;;;8.93;6.63;;;27.10;34.50;;;;;;5982193;24;20395;-64
2023/06/11 06:55:46;;;;;;;9.70;7.20;;;27.00;32.10;;;;;;5982521;24;20398;-64
2023/06/11 06:58:13;;;;;;;10.17;7.30;;;27.30;32.40;;;;;;5982328;24;20425;-64
2023/06/11 07:00:40;;;;;;;11.77;6.30;;;27.40;30.70;;;;;;5982741;24;20472;-64
2023/06/11 07:03:08;;;;;;;12.20;7.30;;;27.50;31.70;;;;;;5981931;24;20430;-64
2023/06/11 07:05:35;;;;;;;7.73;6.00;;;27.40;32.40;;;;;;5981400;24;20481;-64
2023/06/11 07:08:02;;;;;;;9.90;6.67;;;27.80;31.00;;;;;;5979553;24;20425;-64
2023/06/11 07:10:31;;;;;;;9.30;6.90;;;27.80;29.20;;;;;;5980543;24;20425;-64
2023/06/11 07:12:58;;;;;;;9.53;6.40;;;28.00;29.00;;;;;;5980070;24;20884;-64
2023/06/11 07:15:24;;;;;;;10.50;6.63;;;27.80;26.70;;;;;;5980918;24;20907;-64
2023/06/11 07:17:54;;;;;;;9.87;6.53;;;28.10;27.20;;;;;;5981217;24;20445;-64
2023/06/11 07:20:21;;;;;;;14.63;6.67;;;27.90;24.90;;;;;;5981097;24;20432;-64
2023/06/11 07:22:48;;;;;;;9.40;6.43;;;28.00;24.90;;;;;;5980356;24;20408;-64
2023/06/11 07:25:15;;;;;;;9.70;6.30;;;27.90;24.90;;;;;;5981111;24;20419;-64
2023/06/11 07:27:43;;;;;;;8.40;6.27;;;27.80;23.50;;;;;;5979995;24;20417;-65
2023/06/11 07:30:11;;;;;;;8.90;6.57;;;27.90;22.40;;;;;;5980894;24;20396;-61
2023/06/11 07:32:38;;;;;;;8.93;6.30;;;27.80;24.00;;;;;;5981903;24;20396;-62
2023/06/11 07:35:06;;;;;;;9.30;5.87;;;27.70;21.30;;;;;;5981791;24;20717;-62
2023/06/11 07:37:33;;;;;;;9.97;6.80;;;28.40;25.20;;;;;;5982303;24;20496;-62
2023/06/11 07:40:00;;;;;;;10.60;6.97;;;28.40;21.00;;;;;;5983077;24;20421;-61
2023/06/11 07:42:26;;;;;;;9.90;6.10;;;28.50;22.40;;;;;;5982973;24;20447;-62
2023/06/11 07:44:57;;;;;;;8.27;6.57;;;28.20;21.10;;;;;;5984287;24;20467;-62
2023/06/11 07:47:25;;;;;;;10.50;7.83;;;28.40;22.40;;;;;;5983246;24;20455;-62
2023/06/11 07:49:52;;;;;;;10.07;6.63;;;28.60;23.70;;;;;;5984259;24;20422;-65
2023/06/11 07:52:23;;;;;;;8.23;6.33;;;28.80;19.50;;;;;;5984878;24;20422;-61
2023/06/11 07:54:56;;;;;;;10.27;7.23;;;28.90;20.30;;;;;;5994500;24;20394;-62
2023/06/11 07:57:31;;;;;;;9.57;7.33;;;28.80;19.30;;;;;;5983791;24;20438;-62
2023/06/11 08:00:00;;;;;;;9.57;7.40;;;29.40;21.80;;;;;;5984176;24;20403;-62
2023/06/11 08:02:27;;;;;;;10.30;6.07;;;29.10;19.20;;;;;;5983075;24;20427;-62
2023/06/11 08:04:54;;;;;;;9.10;7.10;;;29.20;18.10;;;;;;5983448;24;20420;-61
2023/06/11 08:07:21;;;;;;;8.80;6.00;;;29.10;18.10;;;;;;5983349;24;20479;-61
2023/06/11 08:09:48;;;;;;;8.47;5.83;;;29.20;18.10;;;;;;5983994;24;20404;-62
2023/06/11 08:12:15;;;;;;;8.73;6.50;;;29.40;18.20;;;;;;5984033;24;20419;-61
2023/06/11 08:14:42;;;;;;;7.67;5.50;;;29.40;17.70;;;;;;5983075;24;20423;-62
2023/06/11 08:17:10;;;;;;;12.30;6.90;;;29.50;14.90;;;;;;5983684;24;20879;-62
2023/06/11 08:19:37;;;;;;;10.00;6.80;;;29.60;18.30;;;;;;5983481;24;20813;-61
2023/06/11 08:22:04;;;;;;;10.30;6.00;;;29.30;14.70;;;;;;5983330;24;20426;-62
2023/06/11 08:24:31;;;;;;;8.13;5.83;;;29.30;13.90;;;;;;5983134;24;20474;-62
2023/06/11 08:26:58;;;;;;;11.87;6.17;;;29.50;16.20;;;;;;5983778;24;20501;-62
2023/06/11 08:29:25;;;;;;;11.03;6.23;;;29.70;15.40;;;;;;5983379;24;20499;-61
2023/06/11 08:31:52;;;;;;;9.23;5.90;;;30.20;11.00;;;;;;5983899;24;20793;-61
2023/06/11 08:34:20;;;;;;;10.20;6.70;;;30.30;11.00;;;;;;5982990;24;20447;-61
2023/06/11 08:36:47;;;;;;;7.87;6.17;;;30.30;10.10;;;;;;5983873;24;20502;-62
2023/06/11 08:39:14;;;;;;;9.47;6.40;;;30.10;10.90;;;;;;5982798;24;20503;-62
2023/06/11 08:41:41;;;;;;;9.57;6.40;;;30.30;11.00;;;;;;5992372;24;20425;-63
2023/06/11 08:44:08;;;;;;;8.80;5.93;;;30.40;11.10;;;;;;5982244;24;20406;-62
2023/06/11 08:46:36;;;;;;;10.00;6.17;;;30.40;9.00;;;;;;5980773;24;20485;-62
2023/06/11 08:49:06;;;;;;;7.50;6.00;;;30.70;9.60;;;;;;5982068;24;20743;-64
2023/06/11 08:51:36;;;;;;;7.87;5.33;;;30.80;6.70;;;;;;5982654;24;20445;-64
2023/06/11 08:54:06;;;;;;;9.83;6.00;;;30.70;4.80;;;;;;5981981;24;20404;-65
2023/06/11 08:56:33;;;;;;;8.10;6.10;;;31.40;6.40;;;;;;5982078;24;20486;-65
2023/06/11 08:59:01;;;;;;;7.50;5.60;;;31.40;5.90;;;;;;5982215;24;20498;-65
2023/06/11 09:01:29;;;;;;;9.63;5.67;;;31.10;3.60;;;;;;5982421;24;20507;-65
2023/06/11 09:03:56;;;;;;;9.10;5.73;;;31.60;3.90;;;;;;5982133;24;20423;-64
2023/06/11 09:06:23;;;;;;;8.03;5.73;;;31.60;1.90;;;;;;5982212;24;20462;-64
2023/06/11 09:08:58;;;;;;;8.17;5.43;;;31.70;3.90;;;;;;5981155;24;20499;-66
2023/06/11 09:11:31;;;;;;;8.70;5.87;;;31.80;4.00;;;;;;5983088;24;20404;-65
2023/06/11 09:13:57;;;;;;;7.57;5.70;;;31.90;1.00;;;;;;5982428;24;20378;-66
2023/06/11 09:16:24;;;;;;;8.17;5.47;;;32.00;1.00;;;;;;5983543;24;20810;-66
2023/06/11 09:18:51;;;;;;;8.33;5.27;;;32.10;1.00;;;;;;5983121;24;20397;-66
2023/06/11 09:21:18;;;;;;;9.10;5.90;;;32.20;1.00;;;;;;5983489;24;20444;-66
2023/06/11 09:23:46;;;;;;;8.17;5.60;;;32.40;1.00;;;;;;5982886;24;20801;-65
2023/06/11 09:26:19;;;;;;;9.10;5.20;;;32.20;1.00;;;;;;5983580;24;20752;-66
2023/06/11 09:28:47;;;;;;;8.03;4.70;;;32.30;1.00;;;;;;5983253;24;20435;-65
2023/06/11 09:31:18;;;;;;;7.67;5.20;;;32.30;1.00;;;;;;5983017;24;20427;-66
2023/06/11 09:33:45;;;;;;;8.63;5.47;;;32.30;1.00;;;;;;5983551;24;20487;-65
2023/06/11 09:36:12;;;;;;;9.50;5.47;;;32.10;1.00;;;;;;5983848;24;20469;-65
2023/06/11 09:38:40;;;;;;;8.33;5.47;;;32.10;1.00;;;;;;5983253;24;20811;-65
2023/06/11 09:41:07;;;;;;;7.40;4.73;;;32.50;1.00;;;;;;5983294;24;20450;-65
2023/06/11 09:43:35;;;;;;;7.20;4.80;;;32.70;1.00;;;;;;5983161;24;20426;-66
2023/06/11 09:46:02;;;;;;;7.67;5.50;;;33.30;1.00;;;;;;5983292;24;20394;-66
2023/06/11 09:48:30;;;;;;;7.47;4.70;;;33.40;1.00;;;;;;5982894;24;20445;-66
2023/06/11 09:51:00;;;;;;;7.10;4.90;;;34.00;1.00;;;;;;5983142;24;20502;-65
2023/06/11 09:53:28;;;;;;;13.40;5.37;;;34.00;1.00;;;;;;5983215;24;20481;-67
2023/06/11 09:55:56;;;;;;;7.80;5.47;;;34.10;1.00;;;;;;5983129;24;20426;-66
2023/06/11 09:58:24;;;;;;;7.60;5.70;;;34.00;1.00;;;;;;5982691;24;20390;-64
2023/06/11 10:01:00;;;;;;;7.90;4.27;;;33.70;1.00;;;;;;5982419;24;20432;-65
2023/06/11 10:03:27;;;;;;;6.90;4.80;;;34.10;1.00;;;;;;5982587;24;20402;-67
2023/06/11 10:05:54;;;;;;;7.53;5.00;;;34.20;1.00;;;;;;5983084;24;20421;-66
2023/06/11 10:08:25;;;;;;;10.03;4.93;;;33.80;1.00;;;;;;5982513;24;20786;-66
2023/06/11 10:10:56;;;;;;;6.80;4.50;;;34.20;1.00;;;;;;5983082;24;20403;-66
2023/06/11 10:13:30;;;;;;;8.30;4.80;;;34.40;1.00;;;;;;5982234;24;20385;-67
2023/06/11 10:15:59;;;;;;;7.10;4.87;;;34.70;1.00;;;;;;5983014;24;20412;-66
2023/06/11 10:18:26;;;;;;;7.97;5.50;;;34.90;1.00;;;;;;5983270;24;20473;-67
2023/06/11 10:20:55;;;;;;;14.87;5.00;;;34.90;1.00;;;;;;5983033;24;20506;-67
2023/06/11 10:23:22;;;;;;;7.60;5.17;;;34.60;1.00;;;;;;5982000;24;20427;-66
2023/06/11 10:25:57;;;;;;;8.13;5.10;;;34.90;1.00;;;;;;5982505;24;20507;-66
2023/06/11 10:28:36;;;;;;;7.30;4.83;;;34.90;1.00;;;;;;5982501;24;20495;-67
2023/06/11 10:31:05;;;;;;;8.37;4.50;;;34.70;1.00;;;;;;5982748;24;20379;-66
2023/06/11 10:33:43;;;;;;;9.10;6.10;;;34.50;1.00;;;;;;5982366;24;20398;-66
2023/06/11 10:36:10;;;;;;;7.23;4.23;;;34.60;1.00;;;;;;5982653;24;20403;-64
2023/06/11 10:38:38;;;;;;;7.97;4.93;;;34.40;1.00;;;;;;5990714;24;20412;-64
2023/06/11 10:41:06;;;;;;;8.93;5.10;;;34.90;1.00;;;;;;5982092;24;20425;-64
2023/06/11 10:43:36;;;;;;;7.43;4.90;;;35.50;1.00;;;;;;5981674;24;20891;-65
2023/06/11 10:46:07;;;;;;;7.70;5.20;;;36.10;1.00;;;;;;5982100;24;20462;-66
2023/06/11 10:48:34;;;;;;;10.83;5.47;;;35.70;1.00;;;;;;5982300;24;20464;-66
2023/06/11 10:51:02;;;;;;;8.27;5.50;;;35.20;1.00;;;;;;5981764;24;20395;-66
2023/06/11 10:53:37;;;;;;;7.70;5.37;;;35.10;1.00;;;;;;5982090;24;20394;-65
2023/06/11 10:56:04;;;;;;;7.40;4.80;;;35.30;1.00;;;;;;5982181;24;20410;-66
2023/06/11 10:58:33;;;;;;;10.23;5.27;;;35.30;1.00;;;;;;5982586;24;20396;-66
2023/06/11 11:01:00;;;;;;;10.80;4.47;;;35.60;1.00;;;;;;5982476;24;20427;-66
2023/06/11 11:03:33;;;;;;;9.60;5.07;;;35.60;1.00;;;;;;5981875;24;20498;-67
2023/06/11 11:06:00;;;;;;;7.00;4.50;;;35.60;1.00;;;;;;5982195;24;20378;-68
2023/06/11 11:08:27;;;;;;;8.00;5.23;;;35.70;1.00;;;;;;5980185;24;20443;-67
2023/06/11 11:10:55;;;;;;;8.90;5.40;;;36.00;1.00;;;;;;5982124;24;20419;-67
2023/06/11 11:13:22;;;;;;;8.03;5.00;;;36.40;1.00;;;;;;5981637;24;20428;-67
2023/06/11 11:26:09;;;;;;;7.87;5.03;;;35.80;1.00;;;;;;5983581;24;20513;-63
2023/06/11 11:28:35;;;;;;;7.20;4.83;;;35.60;1.00;;;;;;5983088;24;20526;-65
2023/06/11 11:31:03;;;;;;;9.90;4.80;;;34.70;1.00;;;;;;5982845;24;20402;-65
2023/06/11 11:33:30;;;;;;;14.80;5.70;;;35.00;1.00;;;;;;5983334;24;20394;-65
2023/06/11 11:35:57;;;;;;;7.80;4.77;;;36.10;1.00;;;;;;5984001;24;20419;-65
2023/06/11 11:38:23;;;;;;;6.60;4.40;;;35.80;1.00;;;;;;5983806;24;20521;-65
2023/06/11 11:40:57;;;;;;;8.93;4.33;;;35.60;1.00;;;;;;5983731;24;20398;-65
2023/06/11 11:43:25;;;;;;;7.13;4.87;;;36.20;1.00;;;;;;5983020;24;20394;-65
2023/06/11 11:45:54;;;;;;;7.10;4.40;;;36.40;1.00;;;;;;5983544;24;20451;-65
2023/06/11 11:48:20;;;;;;;10.27;4.90;;;36.80;1.00;;;;;;5983179;24;20417;-65
2023/06/11 11:50:49;;;;;;;8.00;4.83;;;37.00;1.00;;;;;;5983622;24;20426;-65
2023/06/11 11:53:18;;;;;;;7.40;4.70;;;36.60;1.00;;;;;;5983011;24;20426;-65
2023/06/11 11:55:47;;;;;;;7.73;5.10;;;36.90;1.00;;;;;;5983840;24;20418;-65
2023/06/11 11:58:15;;;;;;;9.03;4.50;;;36.30;1.00;;;;;;5982845;24;20491;-65
2023/06/11 12:00:50;;;;;;;7.40;5.00;;;37.00;1.00;;;;;;5983418;24;20394;-66
2023/06/11 12:03:19;;;;;;;10.17;5.13;;;36.60;1.00;;;;;;5982748;24;20466;-66
2023/06/11 12:05:57;;;;;;;7.27;5.30;;;36.40;1.00;;;;;;5983717;24;20889;-65
2023/06/11 12:08:24;;;;;;;7.00;4.07;;;37.10;1.00;;;;;;5983033;24;20427;-64
2023/06/11 12:10:51;;;;;;;13.27;7.57;;;36.70;1.00;;;;;;5983369;24;20401;-65
2023/06/11 12:13:18;;;;;;;8.80;5.23;;;36.60;1.00;;;;;;5979971;24;20401;-64
2023/06/11 12:15:45;;;;;;;7.13;4.93;;;36.40;1.00;;;;;;5982376;24;20419;-66
2023/06/11 12:18:13;;;;;;;8.00;5.10;;;36.90;1.00;;;;;;5982601;24;20461;-66
2023/06/11 12:20:40;;;;;;;8.07;5.27;;;37.10;1.00;;;;;;5982750;24;20426;-66
2023/06/11 12:23:06;;;;;;;7.03;4.63;;;36.60;1.00;;;;;;5982711;24;20398;-66
2023/06/11 12:25:34;;;;;;;9.87;4.63;;;37.10;1.00;;;;;;5983274;24;20409;-65
2023/06/11 12:28:01;;;;;;;7.30;4.40;;;37.60;1.00;;;;;;5982735;24;20503;-66
2023/06/11 12:30:30;;;;;;;7.63;5.00;;;37.40;1.00;;;;;;5983566;24;20420;-66
2023/06/11 12:32:57;;;;;;;7.67;4.73;;;37.80;1.00;;;;;;5982831;24;20727;-66
2023/06/11 12:35:26;;;;;;;7.97;4.97;;;37.90;1.00;;;;;;5983519;24;20420;-66
2023/06/11 12:37:52;;;;;;;8.93;4.40;;;37.20;1.00;;;;;;5982938;24;20394;-66
2023/06/11 12:40:19;;;;;;;10.47;5.37;;;37.80;1.00;;;;;;5983409;24;20421;-66
2023/06/11 12:42:46;;;;;;;8.93;5.47;;;37.90;1.00;;;;;;5982698;24;20681;-66
2023/06/11 12:45:13;;;;;;;11.90;5.70;;;37.20;1.00;;;;;;5983386;24;20995;-65
2023/06/11 12:47:40;;;;;;;9.30;4.93;;;37.60;1.00;;;;;;5983119;24;20420;-66
2023/06/11 12:50:08;;;;;;;8.30;4.67;;;37.30;1.00;;;;;;5983084;24;20419;-65
2023/06/11 12:52:36;;;;;;;7.37;5.33;;;37.40;1.00;;;;;;5982886;24;20427;-65
2023/06/11 12:55:03;;;;;;;8.23;5.80;;;38.00;1.00;;;;;;5982485;24;20882;-65